DAOF

Tindouf Airport

Airport
ICAO code
DAOF
IATA Code
TIN
Summary
ICAO Region
AFI
ICAO Territory
Location

, Tindouf

Serving
Tindouf
Elevation
1453 ft
Coordinates
27° 42' 1" N , 8° 10' 2" W
Metar
DAOF 271025Z 31022KT 3500 DRSA NSC 20/03 Q1012

Runways

Designator Length Width Surface Rops
8/26 2999 46 ASP No/No
08R/26L 2999 46 ASP No/No

Airport map

Aerial View

SKYbrary Partners:

Safety knowledge contributed by: